Time;durP1;ratioP1;P1;durP2;ratioP2;P2;SDS_P1;SDS_P2;PMS_P1;PMS_P2;Temp;Humidity;BMP_temperature;BMP_pressure;BME280_temperature;BME280_humidity;BME280_pressure;Samples;Min_cycle;Max_cycle;Signal;HPM_P1;HPM_P2
2022/02/26 00:01:09;;;;;;;;;;;23.40;43.50;;;;;;1489868;78;702;-70
2022/02/26 00:03:11;;;;;;;;;;;23.40;43.50;;;;;;1501908;78;703;-70
2022/02/26 00:05:13;;;;;;;;;;;23.30;43.50;;;;;;1490416;78;1937;-70
2022/02/26 00:07:15;;;;;;;;;;;23.30;43.50;;;;;;1492869;78;709;-70
2022/02/26 00:09:17;;;;;;;;;;;23.40;43.50;;;;;;1501012;78;714;-71
2022/02/26 00:11:19;;;;;;;;;;;23.40;43.50;;;;;;1499993;78;745;-71
2022/02/26 00:13:21;;;;;;;;;;;23.40;43.50;;;;;;1494540;78;751;-70
2022/02/26 00:15:23;;;;;;;;;;;23.40;43.50;;;;;;1490318;78;1251;-70
2022/02/26 00:17:25;;;;;;;;;;;23.40;43.50;;;;;;1498333;78;698;-70
2022/02/26 00:19:26;;;;;;;;;;;23.40;43.50;;;;;;1497569;78;710;-70
2022/02/26 00:21:28;;;;;;;;;;;23.30;43.60;;;;;;1488126;78;722;-72
2022/02/26 00:23:30;;;;;;;;;;;23.40;43.60;;;;;;1494869;78;670;-72
2022/02/26 00:25:32;;;;;;;;;;;23.40;43.60;;;;;;1498505;78;1934;-72
2022/02/26 00:27:34;;;;;;;;;;;23.50;43.70;;;;;;1495235;78;745;-72
2022/02/26 00:29:36;;;;;;;;;;;23.30;43.60;;;;;;1503046;78;842;-72
2022/02/26 00:31:38;;;;;;;;;;;23.40;43.60;;;;;;1481250;78;671;-72
2022/02/26 00:33:40;;;;;;;;;;;23.30;43.60;;;;;;1469676;78;752;-71
2022/02/26 00:35:42;;;;;;;;;;;23.40;43.60;;;;;;1500601;78;1182;-72
2022/02/26 00:37:44;;;;;;;;;;;23.40;43.60;;;;;;1493796;78;752;-72
2022/02/26 00:39:46;;;;;;;;;;;23.30;43.60;;;;;;1490726;78;726;-71
2022/02/26 00:41:48;;;;;;;;;;;23.40;43.60;;;;;;1486564;78;738;-72
2022/02/26 00:43:50;;;;;;;;;;;23.40;43.60;;;;;;1493271;78;716;-72
2022/02/26 00:45:52;;;;;;;;;;;23.40;43.60;;;;;;1489185;77;1953;-72
2022/02/26 00:47:53;;;;;;;;;;;23.30;43.60;;;;;;1503400;78;700;-71
2022/02/26 00:49:56;;;;;;;;;;;23.30;43.60;;;;;;1479778;78;728;-72
2022/02/26 00:51:57;;;;;;;;;;;23.40;43.60;;;;;;1488528;78;705;-74
2022/02/26 00:53:59;;;;;;;;;;;23.40;43.60;;;;;;1488526;78;740;-71
2022/02/26 00:56:01;;;;;;;;;;;23.30;43.60;;;;;;1486313;78;1138;-72
2022/02/26 00:58:06;;;;;;;;;;;23.30;43.60;;;;;;1499975;78;773;-71
2022/02/26 01:00:07;;;;;;;;;;;23.40;43.60;;;;;;1494902;78;1099;-70
2022/02/26 01:02:09;;;;;;;;;;;23.30;43.60;;;;;;1495969;78;614;-70
2022/02/26 01:04:11;;;;;;;;;;;23.40;43.60;;;;;;1500017;78;699;-70
2022/02/26 01:06:13;;;;;;;;;;;23.40;43.60;;;;;;1492258;77;1929;-68
2022/02/26 01:08:15;;;;;;;;;;;23.30;43.60;;;;;;1495144;78;715;-71
2022/02/26 01:10:17;;;;;;;;;;;23.40;43.60;;;;;;1490311;78;647;-72
2022/02/26 01:12:19;;;;;;;;;;;23.40;43.60;;;;;;1494157;78;701;-72
2022/02/26 01:14:21;;;;;;;;;;;23.30;43.70;;;;;;1494085;78;741;-73
2022/02/26 01:16:23;;;;;;;;;;;23.40;43.70;;;;;;1484372;78;1230;-72
2022/02/26 01:18:25;;;;;;;;;;;23.40;43.70;;;;;;1487872;78;749;-72
2022/02/26 01:20:27;;;;;;;;;;;23.30;43.70;;;;;;1501280;78;743;-71
2022/02/26 01:22:28;;;;;;;;;;;23.40;43.70;;;;;;1502137;78;730;-71
2022/02/26 01:24:30;;;;;;;;;;;23.50;43.80;;;;;;1498102;78;727;-71
2022/02/26 01:26:32;;;;;;;;;;;23.40;43.70;;;;;;1494390;78;1937;-69
2022/02/26 01:28:34;;;;;;;;;;;23.40;43.70;;;;;;1492627;78;820;-72
2022/02/26 01:30:36;;;;;;;;;;;23.50;43.90;;;;;;1497422;78;676;-72
2022/02/26 01:32:41;;;;;;;;;;;23.40;43.70;;;;;;1499910;78;739;-73
2022/02/26 01:34:41;;;;;;;;;;;23.40;43.70;;;;;;1484991;78;998;-70
2022/02/26 01:36:43;;;;;;;;;;;23.40;43.70;;;;;;1494261;78;1134;-72
2022/02/26 01:38:45;;;;;;;;;;;23.40;43.80;;;;;;1490717;78;771;-72
2022/02/26 01:40:47;;;;;;;;;;;23.50;43.90;;;;;;1507909;78;761;-72
2022/02/26 01:42:49;;;;;;;;;;;23.40;43.80;;;;;;1499853;78;670;-73
2022/02/26 01:44:51;;;;;;;;;;;23.50;43.80;;;;;;1495739;78;736;-73
2022/02/26 01:46:53;;;;;;;;;;;23.40;43.70;;;;;;1492233;78;1938;-72
2022/02/26 01:48:55;;;;;;;;;;;23.40;43.70;;;;;;1499949;78;786;-73
2022/02/26 01:50:57;;;;;;;;;;;23.50;43.80;;;;;;1503803;77;746;-73
2022/02/26 01:52:59;;;;;;;;;;;23.40;43.70;;;;;;1495550;78;745;-72
2022/02/26 01:55:01;;;;;;;;;;;23.50;43.90;;;;;;1497789;78;703;-71
2022/02/26 01:57:03;;;;;;;;;;;23.40;43.80;;;;;;1499112;78;1077;-72
2022/02/26 01:59:05;;;;;;;;;;;23.40;43.80;;;;;;1499872;78;717;-70
2022/02/26 02:01:07;;;;;;;;;;;23.40;43.70;;;;;;1490485;77;741;-71
2022/02/26 02:03:09;;;;;;;;;;;23.40;43.80;;;;;;1498401;78;725;-73
2022/02/26 02:05:11;;;;;;;;;;;23.40;43.80;;;;;;1499999;78;1937;-73
2022/02/26 02:07:12;;;;;;;;;;;23.40;43.80;;;;;;1494185;78;663;-73
2022/02/26 02:09:14;;;;;;;;;;;23.50;43.90;;;;;;1503829;78;788;-73
2022/02/26 02:11:16;;;;;;;;;;;23.50;43.90;;;;;;1495526;78;732;-73
2022/02/26 02:13:18;;;;;;;;;;;23.50;43.90;;;;;;1504050;78;719;-72
2022/02/26 02:15:33;;;;;;;;;;;23.50;43.90;;;;;;1498882;78;1153;-71
2022/02/26 02:17:35;;;;;;;;;;;23.50;43.90;;;;;;1485356;78;727;-74
2022/02/26 02:19:37;;;;;;;;;;;23.50;43.80;;;;;;1483359;78;730;-70
2022/02/26 02:21:38;;;;;;;;;;;23.50;43.80;;;;;;1488644;78;755;-69
2022/02/26 02:23:41;;;;;;;;;;;23.60;43.70;;;;;;1479034;78;800;-69
2022/02/26 02:25:43;;;;;;;;;;;23.40;43.60;;;;;;1488603;77;1899;-70
2022/02/26 02:27:45;;;;;;;;;;;23.50;43.80;;;;;;1490918;77;711;-70
2022/02/26 02:29:47;;;;;;;;;;;23.40;43.70;;;;;;1487487;78;786;-70
2022/02/26 02:31:49;;;;;;;;;;;23.50;43.80;;;;;;1486994;78;751;-70
2022/02/26 02:33:51;;;;;;;;;;;23.40;43.70;;;;;;1482457;78;735;-71
2022/02/26 02:35:53;;;;;;;;;;;23.40;43.70;;;;;;1483215;78;1159;-71
2022/02/26 02:37:57;;;;;;;;;;;23.40;43.70;;;;;;1480802;78;712;-71
2022/02/26 02:39:59;;;;;;;;;;;23.50;43.80;;;;;;1484704;78;788;-71
2022/02/26 02:42:01;;;;;;;;;;;23.40;43.70;;;;;;1480833;78;718;-71
2022/02/26 02:44:03;;;;;;;;;;;23.40;43.70;;;;;;1481494;78;709;-71
2022/02/26 02:46:05;;;;;;;;;;;23.50;43.80;;;;;;1480725;78;1942;-71
2022/02/26 02:48:07;;;;;;;;;;;23.40;43.60;;;;;;1480215;78;728;-71
2022/02/26 02:50:09;;;;;;;;;;;23.40;43.60;;;;;;1484227;78;733;-69
2022/02/26 02:52:11;;;;;;;;;;;23.50;43.70;;;;;;1480848;78;729;-68
2022/02/26 02:54:12;;;;;;;;;;;23.40;43.60;;;;;;1481500;78;747;-68
2022/02/26 02:56:14;;;;;;;;;;;23.50;43.80;;;;;;1488716;78;1124;-67
2022/02/26 02:58:20;;;;;;;;;;;23.40;43.60;;;;;;1488820;78;771;-69
2022/02/26 03:00:22;;;;;;;;;;;23.30;43.70;;;;;;1485597;78;748;-70
2022/02/26 03:02:24;;;;;;;;;;;23.40;43.70;;;;;;1481670;78;581;-70
2022/02/26 03:04:25;;;;;;;;;;;23.30;43.70;;;;;;1481029;78;727;-70
2022/02/26 03:06:27;;;;;;;;;;;23.40;43.70;;;;;;1480900;78;1938;-69
2022/02/26 03:08:29;;;;;;;;;;;23.30;43.70;;;;;;1484442;78;732;-70
2022/02/26 03:10:31;;;;;;;;;;;23.30;43.70;;;;;;1479911;78;739;-70
2022/02/26 03:12:33;;;;;;;;;;;23.30;43.80;;;;;;1487765;78;682;-70
2022/02/26 03:14:35;;;;;;;;;;;23.30;43.70;;;;;;1490833;78;689;-71
2022/02/26 03:16:37;;;;;;;;;;;23.40;43.80;;;;;;1488107;78;1114;-72
2022/02/26 03:18:39;;;;;;;;;;;23.40;43.90;;;;;;1495495;78;677;-71
2022/02/26 03:20:41;;;;;;;;;;;23.30;43.90;;;;;;1486220;78;707;-71
2022/02/26 03:22:43;;;;;;;;;;;23.30;43.90;;;;;;1490380;78;711;-72
2022/02/26 03:24:45;;;;;;;;;;;23.30;43.90;;;;;;1491962;78;779;-73
2022/02/26 03:26:53;;;;;;;;;;;23.30;43.80;;;;;;1485178;78;1955;-70
2022/02/26 03:28:50;;;;;;;;;;;23.40;43.90;;;;;;1491472;78;1166;-72
2022/02/26 03:30:52;;;;;;;;;;;23.50;44.00;;;;;;1490175;78;667;-71
2022/02/26 03:32:54;;;;;;;;;;;23.40;43.90;;;;;;1490181;78;732;-72
2022/02/26 03:34:56;;;;;;;;;;;23.50;43.90;;;;;;1493798;78;684;-71
2022/02/26 03:36:58;;;;;;;;;;;23.50;43.90;;;;;;1481762;79;1203;-72
2022/02/26 03:38:59;;;;;;;;;;;23.60;43.80;;;;;;1490332;78;800;-72
2022/02/26 03:41:02;;;;;;;;;;;23.70;43.90;;;;;;1489901;78;748;-71
2022/02/26 03:43:04;;;;;;;;;;;23.70;43.90;;;;;;1492217;78;746;-73
2022/02/26 03:45:06;;;;;;;;;;;23.70;43.90;;;;;;1486686;78;742;-70
2022/02/26 03:47:08;;;;;;;;;;;23.80;43.80;;;;;;1491738;78;1956;-71
2022/02/26 03:49:10;;;;;;;;;;;23.80;43.80;;;;;;1490094;78;732;-70
2022/02/26 03:51:12;;;;;;;;;;;23.80;43.70;;;;;;1491729;78;918;-74
2022/02/26 03:53:14;;;;;;;;;;;23.90;43.80;;;;;;1488620;78;729;-71
2022/02/26 03:55:16;;;;;;;;;;;23.80;43.70;;;;;;1492485;78;1083;-72
2022/02/26 03:57:18;;;;;;;;;;;23.90;43.70;;;;;;1492682;78;755;-71
2022/02/26 03:59:20;;;;;;;;;;;23.80;43.70;;;;;;1491885;78;763;-72
2022/02/26 04:01:21;;;;;;;;;;;23.90;43.80;;;;;;1492772;78;722;-69
2022/02/26 04:03:23;;;;;;;;;;;23.90;43.90;;;;;;1488874;78;704;-70
2022/02/26 04:05:25;;;;;;;;;;;23.90;43.90;;;;;;1492700;78;1214;-71
2022/02/26 04:07:27;;;;;;;;;;;23.90;43.70;;;;;;1488879;78;1944;-71
2022/02/26 04:09:29;;;;;;;;;;;23.90;43.70;;;;;;1485589;78;685;-70
2022/02/26 04:11:31;;;;;;;;;;;23.90;43.60;;;;;;1488694;78;807;-70
2022/02/26 04:13:33;;;;;;;;;;;24.00;43.60;;;;;;1489126;78;759;-70
2022/02/26 04:15:35;;;;;;;;;;;24.00;43.60;;;;;;1492943;78;1146;-69
2022/02/26 04:17:37;;;;;;;;;;;24.00;43.50;;;;;;1487917;78;748;-69
2022/02/26 04:19:39;;;;;;;;;;;24.00;43.50;;;;;;1493821;78;758;-70
2022/02/26 04:21:41;;;;;;;;;;;24.00;43.50;;;;;;1492084;77;724;-69
2022/02/26 04:23:43;;;;;;;;;;;24.00;43.50;;;;;;1483503;78;793;-70
2022/02/26 04:25:45;;;;;;;;;;;24.00;43.50;;;;;;1491490;78;1119;-71
2022/02/26 04:27:47;;;;;;;;;;;24.00;43.50;;;;;;1491396;78;1942;-70
2022/02/26 04:29:49;;;;;;;;;;;24.00;43.60;;;;;;1491483;78;728;-70
2022/02/26 04:31:51;;;;;;;;;;;24.00;43.50;;;;;;1492793;78;703;-71
2022/02/26 04:33:53;;;;;;;;;;;24.00;43.60;;;;;;1493656;78;736;-72
2022/02/26 04:35:55;;;;;;;;;;;24.00;43.60;;;;;;1489623;78;1166;-71
2022/02/26 04:37:56;;;;;;;;;;;24.00;43.60;;;;;;1482703;78;718;-70
2022/02/26 04:39:59;;;;;;;;;;;24.00;43.60;;;;;;1489947;78;882;-70
2022/02/26 04:42:00;;;;;;;;;;;24.00;43.60;;;;;;1492820;78;726;-71
2022/02/26 04:44:02;;;;;;;;;;;24.00;43.60;;;;;;1490568;78;718;-71
2022/02/26 04:46:04;;;;;;;;;;;24.00;43.70;;;;;;1490153;78;1948;-72
2022/02/26 04:48:06;;;;;;;;;;;24.00;43.70;;;;;;1487252;78;728;-71
2022/02/26 04:50:09;;;;;;;;;;;24.00;43.70;;;;;;1500680;77;672;-69
2022/02/26 04:52:10;;;;;;;;;;;24.10;43.90;;;;;;1488940;78;718;-71
2022/02/26 04:54:13;;;;;;;;;;;24.00;43.70;;;;;;1495712;78;679;-72
2022/02/26 04:56:15;;;;;;;;;;;24.00;43.60;;;;;;1499062;78;1137;-71
2022/02/26 04:58:17;;;;;;;;;;;24.00;43.60;;;;;;1494294;78;682;-72
2022/02/26 05:00:19;;;;;;;;;;;24.10;43.70;;;;;;1505209;78;755;-70
2022/02/26 05:02:21;;;;;;;;;;;24.10;43.70;;;;;;1499992;77;692;-71
2022/02/26 05:04:22;;;;;;;;;;;24.10;43.60;;;;;;1499360;78;731;-72
2022/02/26 05:06:24;;;;;;;;;;;24.10;43.60;;;;;;1499817;78;1944;-71
2022/02/26 05:08:26;;;;;;;;;;;24.10;43.60;;;;;;1491283;78;715;-71
2022/02/26 05:10:30;;;;;;;;;;;24.10;43.60;;;;;;1497607;78;712;-71
2022/02/26 05:12:32;;;;;;;;;;;24.10;43.60;;;;;;1499921;78;745;-69
2022/02/26 05:14:34;;;;;;;;;;;24.20;43.60;;;;;;1497466;78;745;-71
2022/02/26 05:16:36;;;;;;;;;;;24.20;43.50;;;;;;1495532;78;1138;-71
2022/02/26 05:18:38;;;;;;;;;;;24.20;43.50;;;;;;1500722;78;770;-71
2022/02/26 05:20:40;;;;;;;;;;;24.20;43.50;;;;;;1503039;78;733;-69
2022/02/26 05:22:42;;;;;;;;;;;24.20;43.50;;;;;;1502511;77;768;-73
2022/02/26 05:24:44;;;;;;;;;;;24.20;43.50;;;;;;1497172;78;675;-70
2022/02/26 05:26:46;;;;;;;;;;;24.20;43.50;;;;;;1483410;78;1948;-72
2022/02/26 05:28:48;;;;;;;;;;;24.20;43.40;;;;;;1490437;78;703;-70
2022/02/26 05:30:50;;;;;;;;;;;24.20;43.40;;;;;;1506285;78;795;-69
2022/02/26 05:32:52;;;;;;;;;;;24.20;43.30;;;;;;1492302;78;684;-70
2022/02/26 05:34:53;;;;;;;;;;;24.20;43.30;;;;;;1494253;78;704;-70
2022/02/26 05:36:55;;;;;;;;;;;24.20;43.30;;;;;;1499697;78;1124;-70
2022/02/26 05:38:57;;;;;;;;;;;24.20;43.30;;;;;;1488527;77;783;-70
2022/02/26 05:40:59;;;;;;;;;;;24.20;43.20;;;;;;1504812;78;666;-71
2022/02/26 05:43:01;;;;;;;;;;;24.20;43.20;;;;;;1488910;78;758;-71
2022/02/26 05:45:03;;;;;;;;;;;24.20;43.20;;;;;;1488941;78;720;-70
2022/02/26 05:47:05;;;;;;;;;;;24.30;43.40;;;;;;1489202;78;1939;-70
2022/02/26 05:49:07;;;;;;;;;;;24.30;43.30;;;;;;1499950;78;673;-70
2022/02/26 05:51:08;;;;;;;;;;;24.20;43.10;;;;;;1501312;78;669;-68
2022/02/26 05:53:10;;;;;;;;;;;24.30;43.30;;;;;;1500144;78;768;-72
2022/02/26 05:55:12;;;;;;;;;;;24.30;43.30;;;;;;1498986;78;704;-71
2022/02/26 05:57:14;;;;;;;;;;;24.20;43.30;;;;;;1499255;77;730;-71
2022/02/26 05:59:16;;;;;;;;;;;24.30;43.50;;;;;;1500030;78;670;-71
2022/02/26 06:01:18;;;;;;;;;;;24.20;43.40;;;;;;1486783;78;731;-72
2022/02/26 06:03:20;;;;;;;;;;;24.20;43.50;;;;;;1484221;78;806;-69
2022/02/26 06:05:22;;;;;;;;;;;24.30;43.70;;;;;;1493980;78;1169;-69
2022/02/26 06:07:24;;;;;;;;;;;24.30;43.50;;;;;;1493375;78;1929;-68
2022/02/26 06:09:25;;;;;;;;;;;24.30;43.40;;;;;;1498820;78;705;-69
2022/02/26 06:11:27;;;;;;;;;;;24.30;43.20;;;;;;1495595;78;748;-69
2022/02/26 06:13:29;;;;;;;;;;;24.30;43.10;;;;;;1498100;78;686;-69
2022/02/26 06:15:31;;;;;;;;;;;24.30;43.00;;;;;;1503273;78;1061;-69
2022/02/26 06:17:35;;;;;;;;;;;24.30;42.90;;;;;;1500098;77;786;-68
2022/02/26 06:19:36;;;;;;;;;;;24.40;42.90;;;;;;1492492;78;1142;-68
2022/02/26 06:21:38;;;;;;;;;;;24.30;42.90;;;;;;1492288;78;777;-69
2022/02/26 06:23:40;;;;;;;;;;;24.40;43.00;;;;;;1476740;78;720;-69
2022/02/26 06:25:42;;;;;;;;;;;24.30;43.10;;;;;;1497804;78;1213;-68
2022/02/26 06:27:44;;;;;;;;;;;24.30;43.20;;;;;;1500972;78;1928;-70
2022/02/26 06:29:46;;;;;;;;;;;24.30;43.20;;;;;;1482548;78;704;-70
2022/02/26 06:31:48;;;;;;;;;;;24.30;43.10;;;;;;1500011;78;816;-68
2022/02/26 06:33:49;;;;;;;;;;;24.40;43.20;;;;;;1509722;78;709;-68
2022/02/26 06:35:52;;;;;;;;;;;24.30;43.10;;;;;;1499933;78;1163;-68
2022/02/26 06:37:54;;;;;;;;;;;24.30;43.20;;;;;;1485020;78;734;-66
2022/02/26 06:39:56;;;;;;;;;;;24.40;43.20;;;;;;1497762;78;723;-69
2022/02/26 06:41:58;;;;;;;;;;;24.30;43.30;;;;;;1498097;78;721;-69
2022/02/26 06:44:01;;;;;;;;;;;24.50;43.20;;;;;;1489413;78;786;-70
2022/02/26 06:46:03;;;;;;;;;;;24.40;43.00;;;;;;1492457;78;1144;-67
2022/02/26 06:48:05;;;;;;;;;;;24.40;42.90;;;;;;1490609;79;1943;-69
2022/02/26 06:50:07;;;;;;;;;;;24.50;42.90;;;;;;1495567;78;714;-70
2022/02/26 06:52:09;;;;;;;;;;;24.40;42.80;;;;;;1503016;78;745;-69
2022/02/26 06:54:11;;;;;;;;;;;24.40;42.80;;;;;;1487573;78;757;-71
2022/02/26 06:56:13;;;;;;;;;;;24.40;42.70;;;;;;1501008;78;1160;-69
2022/02/26 06:58:15;;;;;;;;;;;24.50;42.80;;;;;;1499982;78;701;-70
2022/02/26 07:00:17;;;;;;;;;;;24.50;42.80;;;;;;1498966;77;698;-69
2022/02/26 07:02:19;;;;;;;;;;;24.50;42.80;;;;;;1501567;78;721;-70
2022/02/26 07:04:21;;;;;;;;;;;24.40;42.70;;;;;;1492992;78;725;-69
2022/02/26 07:06:23;;;;;;;;;;;24.40;42.60;;;;;;1502389;78;1116;-69
2022/02/26 07:08:26;;;;;;;;;;;24.40;42.60;;;;;;1498510;78;1905;-70
2022/02/26 07:10:28;;;;;;;;;;;24.40;42.60;;;;;;1497467;78;1523;-69
2022/02/26 07:12:30;;;;;;;;;;;24.40;42.60;;;;;;1492786;78;728;-70
2022/02/26 07:14:32;;;;;;;;;;;24.40;42.60;;;;;;1486634;78;744;-69
2022/02/26 07:16:34;;;;;;;;;;;24.40;42.60;;;;;;1486629;78;1188;-71
2022/02/26 07:18:36;;;;;;;;;;;24.40;42.60;;;;;;1485898;78;769;-69
2022/02/26 07:20:38;;;;;;;;;;;24.30;42.60;;;;;;1485103;78;755;-69
2022/02/26 07:22:40;;;;;;;;;;;24.40;42.70;;;;;;1485255;78;731;-69
2022/02/26 07:24:42;;;;;;;;;;;24.40;42.60;;;;;;1481135;77;724;-69
2022/02/26 07:26:44;;;;;;;;;;;24.50;42.70;;;;;;1481008;78;1242;-72
2022/02/26 07:28:45;;;;;;;;;;;24.40;42.60;;;;;;1477841;78;1952;-69
2022/02/26 07:30:52;;;;;;;;;;;24.30;42.60;;;;;;1481732;78;803;-71
2022/02/26 07:32:51;;;;;;;;;;;24.40;42.60;;;;;;1475722;78;1552;-69
2022/02/26 07:34:53;;;;;;;;;;;24.40;42.60;;;;;;1482574;78;716;-70
2022/02/26 07:36:55;;;;;;;;;;;24.40;42.60;;;;;;1484186;78;1234;-68
2022/02/26 07:38:57;;;;;;;;;;;24.40;42.60;;;;;;1497299;78;724;-69
2022/02/26 07:40:59;;;;;;;;;;;24.40;42.60;;;;;;1490169;78;759;-70
2022/02/26 07:43:01;;;;;;;;;;;24.40;42.60;;;;;;1498062;77;733;-69
2022/02/26 07:45:03;;;;;;;;;;;24.40;42.60;;;;;;1494453;78;813;-71
2022/02/26 07:47:05;;;;;;;;;;;24.40;42.60;;;;;;1499783;78;1111;-69
2022/02/26 07:49:07;;;;;;;;;;;24.30;42.60;;;;;;1499938;78;1897;-69
2022/02/26 07:51:09;;;;;;;;;;;24.40;42.60;;;;;;1496193;78;719;-70
2022/02/26 07:53:11;;;;;;;;;;;24.40;42.50;;;;;;1502902;77;772;-72
2022/02/26 07:55:13;;;;;;;;;;;24.40;42.50;;;;;;1498889;78;813;-69
2022/02/26 07:57:15;;;;;;;;;;;24.40;42.60;;;;;;1505236;78;723;-70
2022/02/26 07:59:16;;;;;;;;;;;24.40;42.50;;;;;;1494677;78;717;-69
2022/02/26 08:01:18;;;;;;;;;;;24.30;42.60;;;;;;1491298;78;865;-69
2022/02/26 08:03:20;;;;;;;;;;;24.30;42.60;;;;;;1491460;78;704;-70
2022/02/26 08:05:22;;;;;;;;;;;24.30;42.60;;;;;;1491310;78;1162;-70
2022/02/26 08:07:24;;;;;;;;;;;24.30;42.60;;;;;;1488465;78;1936;-70
2022/02/26 08:09:26;;;;;;;;;;;24.40;42.50;;;;;;1489969;78;711;-70
2022/02/26 08:11:30;;;;;;;;;;;24.40;42.50;;;;;;1495463;78;737;-70
2022/02/26 08:13:31;;;;;;;;;;;24.40;42.50;;;;;;1499176;77;999;-69
2022/02/26 08:15:33;;;;;;;;;;;24.50;42.60;;;;;;1499914;78;1135;-69
2022/02/26 08:17:35;;;;;;;;;;;24.30;42.60;;;;;;1497256;78;671;-70
2022/02/26 08:19:38;;;;;;;;;;;24.40;42.50;;;;;;1485139;78;766;-69
2022/02/26 08:21:40;;;;;;;;;;;24.30;42.60;;;;;;1488444;78;781;-67
2022/02/26 08:23:42;;;;;;;;;;;24.40;42.50;;;;;;1488414;78;767;-69
2022/02/26 08:25:44;;;;;;;;;;;24.40;42.50;;;;;;1482787;78;1201;-69
2022/02/26 08:27:45;;;;;;;;;;;24.40;42.40;;;;;;1481059;78;1929;-69
2022/02/26 08:29:47;;;;;;;;;;;24.30;42.50;;;;;;1480068;78;722;-70
2022/02/26 08:31:49;;;;;;;;;;;24.40;42.40;;;;;;1479807;78;716;-70
2022/02/26 08:33:51;;;;;;;;;;;24.30;42.50;;;;;;1483202;79;732;-68
2022/02/26 08:35:53;;;;;;;;;;;24.40;42.40;;;;;;1475873;79;1170;-68
2022/02/26 08:37:55;;;;;;;;;;;24.40;42.50;;;;;;1485564;78;745;-69
2022/02/26 08:39:57;;;;;;;;;;;24.30;42.40;;;;;;1483019;78;712;-68
2022/02/26 08:41:58;;;;;;;;;;;24.40;42.40;;;;;;1477650;78;785;-68
2022/02/26 08:44:00;;;;;;;;;;;24.40;42.40;;;;;;1484053;78;713;-70
2022/02/26 08:46:02;;;;;;;;;;;24.40;42.40;;;;;;1482198;78;1165;-69
2022/02/26 08:48:04;;;;;;;;;;;24.40;42.40;;;;;;1483058;78;1939;-69
2022/02/26 08:50:07;;;;;;;;;;;24.40;42.40;;;;;;1485218;78;716;-68
2022/02/26 08:52:09;;;;;;;;;;;24.40;42.40;;;;;;1476159;78;787;-70
2022/02/26 08:54:11;;;;;;;;;;;24.40;42.40;;;;;;1479066;78;731;-71
2022/02/26 08:56:12;;;;;;;;;;;24.40;42.40;;;;;;1477612;78;1136;-69
2022/02/26 08:58:14;;;;;;;;;;;24.40;42.30;;;;;;1476535;78;736;-68
2022/02/26 09:00:16;;;;;;;;;;;24.30;42.30;;;;;;1482397;78;741;-68
2022/02/26 09:02:18;;;;;;;;;;;24.40;42.30;;;;;;1483532;78;830;-69
2022/02/26 09:04:20;;;;;;;;;;;24.40;42.30;;;;;;1483035;78;747;-70
2022/02/26 09:06:22;;;;;;;;;;;24.40;42.30;;;;;;1482560;78;1206;-69
2022/02/26 09:08:24;;;;;;;;;;;24.50;42.50;;;;;;1483265;78;1919;-69
2022/02/26 09:10:26;;;;;;;;;;;24.50;42.50;;;;;;1481018;78;803;-70
2022/02/26 09:12:28;;;;;;;;;;;24.40;42.30;;;;;;1482421;78;772;-69
2022/02/26 09:14:30;;;;;;;;;;;24.40;42.30;;;;;;1482527;78;741;-69
2022/02/26 09:16:32;;;;;;;;;;;24.40;42.30;;;;;;1480818;78;1148;-70
2022/02/26 09:18:34;;;;;;;;;;;24.30;42.30;;;;;;1479140;78;747;-69
2022/02/26 09:20:35;;;;;;;;;;;24.40;42.30;;;;;;1485267;78;776;-68
2022/02/26 09:22:37;;;;;;;;;;;24.30;42.30;;;;;;1478119;78;733;-69
2022/02/26 09:24:39;;;;;;;;;;;24.40;42.30;;;;;;1483812;77;668;-69
2022/02/26 09:26:41;;;;;;;;;;;24.40;42.30;;;;;;1473513;78;1143;-69
2022/02/26 09:28:43;;;;;;;;;;;24.40;42.30;;;;;;1482692;78;1937;-69
2022/02/26 09:30:45;;;;;;;;;;;24.40;42.30;;;;;;1486161;78;768;-70
2022/02/26 09:32:47;;;;;;;;;;;24.40;42.20;;;;;;1475626;78;811;-71
2022/02/26 09:34:49;;;;;;;;;;;24.40;42.30;;;;;;1472613;78;775;-69
2022/02/26 09:36:53;;;;;;;;;;;24.40;42.30;;;;;;1475777;78;1163;-69
2022/02/26 09:38:54;;;;;;;;;;;24.40;42.30;;;;;;1468713;78;1447;-70
2022/02/26 09:40:56;;;;;;;;;;;24.30;42.30;;;;;;1470103;78;657;-69
2022/02/26 09:42:59;;;;;;;;;;;24.40;42.30;;;;;;1480499;78;797;-69
2022/02/26 09:45:01;;;;;;;;;;;24.40;42.30;;;;;;1480240;78;869;-70
2022/02/26 09:47:03;;;;;;;;;;;24.30;42.30;;;;;;1473734;78;1154;-70
2022/02/26 09:49:05;;;;;;;;;;;24.40;42.30;;;;;;1472500;78;1929;-70
2022/02/26 09:51:07;;;;;;;;;;;24.40;42.30;;;;;;1477580;78;702;-70
2022/02/26 09:53:09;;;;;;;;;;;24.40;42.30;;;;;;1480057;78;697;-70
2022/02/26 09:55:10;;;;;;;;;;;24.40;42.30;;;;;;1469372;78;736;-70
2022/02/26 09:57:13;;;;;;;;;;;24.40;42.30;;;;;;1477708;78;1121;-68
2022/02/26 09:59:15;;;;;;;;;;;24.40;42.30;;;;;;1470764;78;808;-71
2022/02/26 10:01:16;;;;;;;;;;;24.40;42.30;;;;;;1475869;78;782;-69
2022/02/26 10:03:29;;;;;;;;;;;24.40;42.20;;;;;;1480583;78;788;-69
2022/02/26 10:05:32;;;;;;;;;;;24.40;42.30;;;;;;1470524;78;1175;-69
2022/02/26 10:07:34;;;;;;;;;;;24.30;42.20;;;;;;1490024;78;725;-70
2022/02/26 10:09:39;;;;;;;;;;;24.40;42.20;;;;;;1489737;78;1934;-69
2022/02/26 10:11:41;;;;;;;;;;;24.30;42.20;;;;;;1484226;78;842;-69
2022/02/26 10:13:47;;;;;;;;;;;24.40;42.20;;;;;;1488265;78;724;-70
2022/02/26 10:15:47;;;;;;;;;;;24.40;42.20;;;;;;1484824;77;1145;-70
2022/02/26 10:17:50;;;;;;;;;;;24.40;42.20;;;;;;1490317;78;710;-69
2022/02/26 10:20:12;;;;;;;;;;;24.40;42.20;;;;;;1496076;78;1181;-70
2022/02/26 10:22:14;;;;;;;;;;;24.40;42.20;;;;;;1498850;78;706;-71
2022/02/26 10:24:16;;;;;;;;;;;24.40;42.20;;;;;;1490409;78;737;-70
2022/02/26 10:26:19;;;;;;;;;;;24.40;42.20;;;;;;1487538;78;1159;-68
2022/02/26 10:28:21;;;;;;;;;;;24.50;42.30;;;;;;1481334;78;1923;-69
2022/02/26 10:30:34;;;;;;;;;;;24.40;42.20;;;;;;1496120;78;699;-69
2022/02/26 10:32:36;;;;;;;;;;;24.50;42.30;;;;;;1496919;78;979;-69
2022/02/26 10:34:39;;;;;;;;;;;24.50;42.20;;;;;;1501994;78;853;-69
2022/02/26 10:36:42;;;;;;;;;;;24.50;42.30;;;;;;1491492;78;1134;-68
2022/02/26 10:38:44;;;;;;;;;;;24.40;42.30;;;;;;1498284;77;697;-70
2022/02/26 10:41:06;;;;;;;;;;;24.40;42.20;;;;;;1479984;79;697;-69
2022/02/26 10:43:06;;;;;;;;;;;24.40;42.30;;;;;;1492415;78;1193;-69
2022/02/26 10:45:12;;;;;;;;;;;24.50;42.30;;;;;;1485966;78;776;-70
2022/02/26 10:47:14;;;;;;;;;;;24.50;42.30;;;;;;1486152;78;1143;-69
2022/02/26 10:49:17;;;;;;;;;;;24.50;42.40;;;;;;1490603;78;1942;-70
2022/02/26 10:51:19;;;;;;;;;;;24.50;42.30;;;;;;1489227;78;759;-69
2022/02/26 10:53:22;;;;;;;;;;;24.50;42.30;;;;;;1482734;78;687;-69
2022/02/26 10:55:24;;;;;;;;;;;24.50;42.30;;;;;;1488320;78;1157;-68
2022/02/26 10:57:32;;;;;;;;;;;24.50;42.30;;;;;;1488882;78;754;-68
2022/02/26 10:59:35;;;;;;;;;;;24.50;42.30;;;;;;1507232;78;780;-68
2022/02/26 11:01:36;;;;;;;;;;;24.50;42.20;;;;;;1500020;78;797;-70
2022/02/26 11:03:38;;;;;;;;;;;24.50;42.30;;;;;;1487721;78;788;-68
2022/02/26 11:05:40;;;;;;;;;;;24.50;42.20;;;;;;1499363;78;1140;-68
2022/02/26 11:07:42;;;;;;;;;;;24.50;42.20;;;;;;1488818;78;799;-68
2022/02/26 11:09:45;;;;;;;;;;;24.50;42.20;;;;;;1488655;78;1942;-68
2022/02/26 11:11:49;;;;;;;;;;;24.50;42.20;;;;;;1475713;77;704;-66
2022/02/26 11:13:51;;;;;;;;;;;24.60;42.20;;;;;;1488262;78;827;-68
2022/02/26 11:15:53;;;;;;;;;;;24.60;42.20;;;;;;1479042;78;1162;-68
2022/02/26 11:17:55;;;;;;;;;;;24.50;42.10;;;;;;1478662;78;711;-68
2022/02/26 11:19:59;;;;;;;;;;;24.60;42.10;;;;;;1481188;78;727;-69
2022/02/26 11:22:01;;;;;;;;;;;24.60;42.10;;;;;;1483859;78;801;-69
2022/02/26 11:24:03;;;;;;;;;;;24.60;42.10;;;;;;1484284;78;734;-68
2022/02/26 11:26:07;;;;;;;;;;;24.60;42.10;;;;;;1489445;79;1102;-68
2022/02/26 11:28:10;;;;;;;;;;;24.50;42.10;;;;;;1496103;78;712;-69
2022/02/26 11:30:12;;;;;;;;;;;24.50;42.20;;;;;;1488843;78;1959;-69
2022/02/26 11:32:15;;;;;;;;;;;24.50;42.40;;;;;;1493054;78;708;-67
2022/02/26 11:34:23;;;;;;;;;;;24.40;42.60;;;;;;1499835;78;776;-70
2022/02/26 11:36:27;;;;;;;;;;;24.30;42.90;;;;;;1497811;78;1195;-66
2022/02/26 11:38:30;;;;;;;;;;;24.30;43.20;;;;;;1498859;77;1213;-68
2022/02/26 11:40:32;;;;;;;;;;;24.40;43.30;;;;;;1494152;79;1337;-69
2022/02/26 11:42:34;;;;;;;;;;;24.50;43.50;;;;;;1494149;78;721;-67
2022/02/26 11:44:40;;;;;;;;;;;24.50;43.40;;;;;;1487324;79;1214;-74
2022/02/26 11:46:42;;;;;;;;;;;24.50;43.30;;;;;;1487598;78;1129;-70
2022/02/26 11:48:44;;;;;;;;;;;24.50;43.20;;;;;;1490526;78;1937;-70
2022/02/26 11:50:46;;;;;;;;;;;24.60;43.10;;;;;;1490851;78;725;-69
2022/02/26 11:52:58;;;;;;;;;;;24.50;42.30;;;;;;1498798;78;677;-72
2022/02/26 11:55:00;;;;;;;;;;;24.50;42.10;;;;;;1504069;78;747;-71
2022/02/26 11:57:02;;;;;;;;;;;24.50;42.20;;;;;;1501018;78;1143;-70
2022/02/26 11:59:04;;;;;;;;;;;24.50;42.20;;;;;;1505597;78;719;-70
2022/02/26 12:01:07;;;;;;;;;;;24.60;42.20;;;;;;1512362;78;834;-71
2022/02/26 12:03:18;;;;;;;;;;;24.60;42.20;;;;;;1512431;77;775;-72
2022/02/26 12:05:28;;;;;;;;;;;24.60;42.20;;;;;;1512330;78;1129;-70
2022/02/26 12:07:30;;;;;;;;;;;24.50;42.20;;;;;;1509564;78;954;-71
2022/02/26 12:09:31;;;;;;;;;;;24.50;42.10;;;;;;1487320;80;1921;-72